Corpus Christi — WDC2785 — position and weather

sailwx.info

Track history (hours):
 
Tides and Currents Weather Stations Pressure Air Temp Water Temp Dewpoint Dewpoint Depression Visibility Wind Speed Wind Dir Waves Ship Positions

Corpus Christi

Owner: Marquette Transportation Company Gulf-Inland, LLC, Jefferson, LA. More information available from US FCC via Universal Licensing System and Coast Guard Vessel Documentation Center.

Last reported at 2018-Jan-05 11:23 UTC. Time now 2018-Jan-24 01:56 UTC.
Position N 29°42' W 095°01'.
Warning: this ship's position is 18 days out of date.

Length 116 m; draft 2.7 m.

Type: . MMSI: 366997690.

Date/timePositionNaut miles runAvg speedWind from/ knotsBaromVisibWave heightAir tempDewpointWater temp
2018-Jan-05 11:23N 29°42' W 095°01'2 5.6
2018-Jan-05 11:00N 29°41' W 094°59'3 6.1
2018-Jan-05 10:26N 29°38' W 094°58'2 5.6
2018-Jan-05 10:00N 29°36' W 094°57'3 5.7
2018-Jan-05 09:30N 29°33' W 094°55'  
2018-Jan-03 02:31N 29°33' W 094°54'0 5.0
2018-Jan-03 02:30N 29°33' W 094°55'3 5.2
2018-Jan-03 02:00N 29°35' W 094°56'3 5.6
2018-Jan-03 01:30N 29°38' W 094°58'3 5.7
2018-Jan-03 00:59N 29°40' W 094°59'3 5.2
2018-Jan-03 00:29N 29°42' W 095°01'3 4.5
2018-Jan-02 23:56N 29°44' W 095°03'2 0.4
2018-Jan-02 17:59N 29°42' W 095°01'3 6.4
2018-Jan-02 17:30N 29°40' W 094°59'4 7.7
2018-Jan-02 17:00N 29°37' W 094°57'4 7.7
2018-Jan-02 16:30N 29°34' W 094°55'  
2017-Dec-30 12:09N 29°33' W 094°54'1 7.0
2017-Dec-30 12:00N 29°33' W 094°55'3 6.6
2017-Dec-30 11:31N 29°36' W 094°57'3 6.8
2017-Dec-30 11:01N 29°39' W 094°58'3 6.5
2017-Dec-30 10:29N 29°42' W 095°01'3 5.8
2017-Dec-30 10:01N 29°44' W 095°03'2 0.2
2017-Dec-29 23:40N 29°42' W 095°01'1 5.3
2017-Dec-29 23:27N 29°42' W 094°60'3 5.7
2017-Dec-29 22:58N 29°40' W 094°58'3 5.8
2017-Dec-29 22:31N 29°37' W 094°57'3 5.7
2017-Dec-29 22:01N 29°35' W 094°56'  
2017-Dec-26 13:52N 29°32' W 094°54'2 6.4
2017-Dec-26 13:30N 29°34' W 094°56'3 6.0
2017-Dec-26 13:01N 29°37' W 094°57'3 6.5
2017-Dec-26 12:30N 29°40' W 094°59'3 6.0
2017-Dec-26 12:00N 29°42' W 095°01'3 5.7
2017-Dec-26 11:30N 29°44' W 095°03'  
Track history (hours):
 
Tides and Currents Weather Stations Pressure Air Temp Water Temp Dewpoint Dewpoint Depression Visibility Wind Speed Wind Dir Waves Ship Positions

Corpus Christi

Owner: Marquette Transportation Company Gulf-Inland, LLC, Jefferson, LA. More information available from US FCC via Universal Licensing System and Coast Guard Vessel Documentation Center.

Last reported at 2018-Jan-05 11:23 UTC. Time now 2018-Jan-24 01:56 UTC.
Position N 29°42' W 095°01'.
Warning: this ship's position is 18 days out of date.

Length 116 m; draft 2.7 m.

Type: . MMSI: 366997690.

Date/timePositionNaut miles runAvg speedWind from/ knotsBaromVisibWave heightAir tempDewpointWater temp
2018-Jan-05 11:23N 29°42' W 095°01'2 5.6
2018-Jan-05 11:00N 29°41' W 094°59'3 6.1
2018-Jan-05 10:26N 29°38' W 094°58'2 5.6
2018-Jan-05 10:00N 29°36' W 094°57'3 5.7
2018-Jan-05 09:30N 29°33' W 094°55'  
2018-Jan-03 02:31N 29°33' W 094°54'0 5.0
2018-Jan-03 02:30N 29°33' W 094°55'3 5.2
2018-Jan-03 02:00N 29°35' W 094°56'3 5.6
2018-Jan-03 01:30N 29°38' W 094°58'3 5.7
2018-Jan-03 00:59N 29°40' W 094°59'3 5.2
2018-Jan-03 00:29N 29°42' W 095°01'3 4.5
2018-Jan-02 23:56N 29°44' W 095°03'2 0.4
2018-Jan-02 17:59N 29°42' W 095°01'3 6.4
2018-Jan-02 17:30N 29°40' W 094°59'4 7.7
2018-Jan-02 17:00N 29°37' W 094°57'4 7.7
2018-Jan-02 16:30N 29°34' W 094°55'  
2017-Dec-30 12:09N 29°33' W 094°54'1 7.0
2017-Dec-30 12:00N 29°33' W 094°55'3 6.6
2017-Dec-30 11:31N 29°36' W 094°57'3 6.8
2017-Dec-30 11:01N 29°39' W 094°58'3 6.5
2017-Dec-30 10:29N 29°42' W 095°01'3 5.8
2017-Dec-30 10:01N 29°44' W 095°03'2 0.2
2017-Dec-29 23:40N 29°42' W 095°01'1 5.3
2017-Dec-29 23:27N 29°42' W 094°60'3 5.7
2017-Dec-29 22:58N 29°40' W 094°58'3 5.8
2017-Dec-29 22:31N 29°37' W 094°57'3 5.7
2017-Dec-29 22:01N 29°35' W 094°56'  
2017-Dec-26 13:52N 29°32' W 094°54'2 6.4
2017-Dec-26 13:30N 29°34' W 094°56'3 6.0
2017-Dec-26 13:01N 29°37' W 094°57'3 6.5
2017-Dec-26 12:30N 29°40' W 094°59'3 6.0
2017-Dec-26 12:00N 29°42' W 095°01'3 5.7
2017-Dec-26 11:30N 29°44' W 095°03'  

Dump ship's entire track history